Time;durP1;ratioP1;P1;durP2;ratioP2;P2;SDS_P1;SDS_P2;PMS_P1;PMS_P2;Temp;Humidity;BMP_temperature;BMP_pressure;BME280_temperature;BME280_humidity;BME280_pressure;Samples;Min_cycle;Max_cycle;Signal;HPM_P1;HPM_P2
2023/07/24 00:01:25;;;;;;;10.10;6.70;;;;;21.60;96684.00;;;;5028021;28;20244;-72
2023/07/24 00:04:14;;;;;;;12.30;7.07;;;;;21.70;96674.00;;;;5033784;28;20674;-73
2023/07/24 00:07:05;;;;;;;13.00;7.53;;;;;21.60;96678.00;;;;5031474;28;20694;-72
2023/07/24 00:09:55;;;;;;;8.90;5.90;;;;;21.50;96672.00;;;;5036569;28;20224;-72
2023/07/24 00:12:44;;;;;;;10.07;7.33;;;;;21.50;96668.00;;;;5044927;28;20613;-72
2023/07/24 00:15:33;;;;;;;9.43;6.60;;;;;21.40;96672.00;;;;5044005;28;20215;-72
2023/07/24 00:18:22;;;;;;;10.00;7.10;;;;;21.50;96662.00;;;;5044972;28;20200;-72
2023/07/24 00:21:13;;;;;;;9.70;7.20;;;;;21.30;96667.00;;;;5033875;28;20228;-72
2023/07/24 00:24:03;;;;;;;10.90;7.40;;;;;21.00;96658.00;;;;5034836;28;20205;-72
2023/07/24 00:26:52;;;;;;;12.57;7.73;;;;;20.80;96665.00;;;;5034274;28;20206;-72
2023/07/24 00:29:41;;;;;;;11.63;7.90;;;;;21.00;96663.00;;;;5019965;28;20221;-72
2023/07/24 00:32:30;;;;;;;8.83;7.07;;;;;21.00;96669.00;;;;5037776;28;20223;-72
2023/07/24 00:35:19;;;;;;;11.87;7.53;;;;;21.20;96678.00;;;;5033177;28;20207;-72
2023/07/24 00:38:09;;;;;;;9.83;6.70;;;;;21.00;96666.00;;;;5032026;28;20220;-72
2023/07/24 00:40:59;;;;;;;11.00;7.40;;;;;21.10;96670.00;;;;5024027;28;20241;-72
2023/07/24 00:43:48;;;;;;;13.03;7.30;;;;;21.20;96665.00;;;;5036903;28;20192;-72
2023/07/24 00:46:38;;;;;;;11.20;8.00;;;;;20.80;96668.00;;;;5021475;28;20918;-72
2023/07/24 00:49:27;;;;;;;11.87;8.10;;;;;20.60;96669.00;;;;5033347;28;20215;-72
2023/07/24 00:52:16;;;;;;;10.67;7.23;;;;;20.90;96667.00;;;;5027728;28;20232;-72
2023/07/24 00:55:06;;;;;;;10.10;7.87;;;;;20.70;96662.00;;;;5030445;28;20200;-72
2023/07/24 00:57:57;;;;;;;10.07;7.10;;;;;20.80;96658.00;;;;5035467;28;20225;-72
2023/07/24 01:00:46;;;;;;;8.77;6.97;;;;;20.60;96653.00;;;;5039352;28;20217;-72
2023/07/24 01:03:36;;;;;;;9.40;6.03;;;;;20.60;96659.00;;;;5031139;28;20211;-72
2023/07/24 01:06:25;;;;;;;9.43;7.63;;;;;20.80;96656.00;;;;5028125;28;20193;-72
2023/07/24 01:09:14;;;;;;;8.47;6.93;;;;;20.40;96657.00;;;;5026543;28;20283;-72
2023/07/24 01:12:08;;;;;;;11.10;8.00;;;;;20.10;96644.00;;;;5028935;28;20194;-72
2023/07/24 01:15:05;;;;;;;14.33;7.57;;;;;20.20;96647.00;;;;5028920;28;20209;-72
2023/07/24 01:18:00;;;;;;;12.03;7.63;;;;;20.60;96641.00;;;;5031327;28;20216;-72
2023/07/24 01:20:52;;;;;;;10.23;7.03;;;;;20.40;96645.00;;;;5027940;28;20232;-72
2023/07/24 01:23:52;;;;;;;9.63;7.27;;;;;20.30;96649.00;;;;5033456;28;20207;-72
2023/07/24 01:26:43;;;;;;;10.77;7.43;;;;;20.20;96647.00;;;;5030049;28;20205;-72
2023/07/24 01:29:32;;;;;;;12.97;8.47;;;;;20.20;96646.00;;;;5033346;28;20201;-72
2023/07/24 01:32:21;;;;;;;11.00;7.10;;;;;20.10;96649.00;;;;5034224;28;20197;-72
2023/07/24 01:35:10;;;;;;;10.43;8.07;;;;;20.20;96640.00;;;;5033947;28;20201;-72
2023/07/24 01:38:00;;;;;;;9.33;6.77;;;;;20.20;96634.00;;;;5030904;28;20220;-72
2023/07/24 01:40:50;;;;;;;10.33;6.80;;;;;20.30;96632.00;;;;5033458;28;20220;-72
2023/07/24 01:43:40;;;;;;;13.17;8.23;;;;;20.40;96635.00;;;;5028459;28;20205;-72
2023/07/24 01:46:29;;;;;;;10.60;6.70;;;;;20.20;96635.00;;;;5026691;28;20200;-72
2023/07/24 01:49:18;;;;;;;12.90;7.37;;;;;19.90;96638.00;;;;5028968;28;20209;-72
2023/07/24 01:52:08;;;;;;;10.20;7.93;;;;;20.00;96634.00;;;;5035123;28;20255;-73
2023/07/24 01:54:57;;;;;;;12.00;7.50;;;;;20.10;96629.00;;;;5031415;28;20209;-71
2023/07/24 01:57:46;;;;;;;7.40;6.13;;;;;20.20;96626.00;;;;5035412;28;20708;-72
2023/07/24 02:00:36;;;;;;;12.03;7.37;;;;;20.20;96616.00;;;;5027166;28;20236;-72
2023/07/24 02:03:25;;;;;;;12.60;9.27;;;;;20.00;96609.00;;;;5028227;28;20204;-72
2023/07/24 02:06:15;;;;;;;10.87;6.80;;;;;19.70;96616.00;;;;5029076;28;20205;-72
2023/07/24 02:09:04;;;;;;;10.20;6.97;;;;;19.90;96610.00;;;;5027652;28;20225;-72
2023/07/24 02:11:53;;;;;;;9.60;7.80;;;;;20.00;96610.00;;;;5030300;28;20201;-73
2023/07/24 02:14:42;;;;;;;11.60;7.50;;;;;20.00;96604.00;;;;5043625;28;20207;-72
2023/07/24 02:17:32;;;;;;;14.13;8.43;;;;;19.90;96617.00;;;;5027422;28;20716;-72
2023/07/24 02:20:21;;;;;;;11.53;8.37;;;;;19.70;96617.00;;;;5031821;28;20225;-72
2023/07/24 02:23:11;;;;;;;13.83;7.43;;;;;19.40;96618.00;;;;5035646;28;20208;-72
2023/07/24 02:26:00;;;;;;;8.10;6.57;;;;;19.80;96621.00;;;;5027203;28;20571;-72
2023/07/24 02:28:49;;;;;;;11.87;7.57;;;;;19.80;96617.00;;;;5035327;28;20203;-72
2023/07/24 02:31:38;;;;;;;10.90;7.70;;;;;19.90;96624.00;;;;5033687;28;20208;-72
2023/07/24 02:34:29;;;;;;;9.60;6.33;;;;;19.60;96626.00;;;;5030248;28;20247;-72
2023/07/24 02:37:18;;;;;;;11.37;6.93;;;;;19.40;96616.00;;;;5038428;28;20713;-72
2023/07/24 02:40:08;;;;;;;9.73;7.20;;;;;19.30;96616.00;;;;5038012;28;20236;-72
2023/07/24 02:42:57;;;;;;;13.03;7.20;;;;;19.40;96612.00;;;;5034914;28;20209;-72
2023/07/24 02:45:46;;;;;;;11.00;6.73;;;;;19.40;96607.00;;;;5038409;28;20205;-71
2023/07/24 02:48:35;;;;;;;13.50;8.17;;;;;19.50;96614.00;;;;5022310;28;20553;-72
2023/07/24 02:51:26;;;;;;;13.07;8.37;;;;;19.70;96601.00;;;;5029750;28;20228;-72
2023/07/24 02:54:15;;;;;;;10.60;8.07;;;;;19.50;96597.00;;;;5032291;28;20193;-72
2023/07/24 02:57:04;;;;;;;10.77;8.27;;;;;19.30;96599.00;;;;5037712;28;20485;-72
2023/07/24 02:59:53;;;;;;;10.73;7.20;;;;;19.60;96596.00;;;;5035309;28;20216;-72
2023/07/24 03:02:42;;;;;;;11.33;8.03;;;;;19.60;96596.00;;;;5034533;28;20672;-72
2023/07/24 03:05:32;;;;;;;15.40;8.57;;;;;19.20;96591.00;;;;5032270;28;20208;-71
2023/07/24 03:08:22;;;;;;;12.67;7.37;;;;;18.80;96603.00;;;;5029688;28;20197;-71
2023/07/24 03:11:11;;;;;;;8.93;7.30;;;;;19.20;96602.00;;;;5032492;28;20688;-72
2023/07/24 03:14:00;;;;;;;16.63;8.87;;;;;19.00;96596.00;;;;5040394;28;20205;-72
2023/07/24 03:16:49;;;;;;;14.97;7.00;;;;;18.80;96593.00;;;;5041685;28;20219;-72
2023/07/24 03:19:38;;;;;;;9.83;7.33;;;;;19.00;96585.00;;;;5045805;28;20727;-72
2023/07/24 03:22:27;;;;;;;12.60;8.40;;;;;19.10;96575.00;;;;5041219;28;20209;-72
2023/07/24 03:25:18;;;;;;;12.97;7.43;;;;;19.20;96575.00;;;;5031352;28;20205;-72
2023/07/24 03:28:07;;;;;;;10.67;6.70;;;;;19.20;96579.00;;;;5032785;28;20205;-72
2023/07/24 03:30:56;;;;;;;11.13;7.60;;;;;19.10;96570.00;;;;5027765;28;20581;-72
2023/07/24 03:33:45;;;;;;;12.85;10.15;;;;;19.00;96572.00;;;;5028813;28;20198;-72
2023/07/24 03:36:35;;;;;;;9.43;7.37;;;;;19.10;96563.00;;;;5030229;28;20220;-72
2023/07/24 03:39:24;;;;;;;12.93;7.73;;;;;18.70;96561.00;;;;5033432;28;20217;-71
2023/07/24 03:42:26;;;;;;;17.90;10.70;;;;;18.80;96557.00;;;;5032181;28;20201;-71
2023/07/24 03:45:15;;;;;;;11.27;8.43;;;;;19.00;96555.00;;;;5031561;28;20205;-71
2023/07/24 03:48:04;;;;;;;11.30;7.97;;;;;18.80;96548.00;;;;5036451;28;20201;-72
2023/07/24 03:50:59;;;;;;;12.60;7.57;;;;;18.70;96555.00;;;;5029782;28;20603;-71
2023/07/24 03:53:48;;;;;;;10.63;8.77;;;;;18.80;96559.00;;;;5030416;28;20686;-71
2023/07/24 03:56:37;;;;;;;8.97;7.80;;;;;19.10;96558.00;;;;5036477;28;20197;-72
2023/07/24 03:59:28;;;;;;;13.43;9.30;;;;;19.10;96549.00;;;;5029174;28;20240;-72
2023/07/24 04:02:17;;;;;;;17.23;8.40;;;;;19.00;96549.00;;;;5030005;28;20209;-72
2023/07/24 04:05:06;;;;;;;14.00;8.63;;;;;18.90;96546.00;;;;5042462;28;20206;-72
2023/07/24 04:07:56;;;;;;;11.70;7.43;;;;;18.70;96543.00;;;;5032745;28;20192;-72
2023/07/24 04:10:45;;;;;;;10.80;7.20;;;;;18.70;96544.00;;;;5031398;28;20228;-72
2023/07/24 04:13:34;;;;;;;10.03;7.53;;;;;19.20;96555.00;;;;5040062;28;20201;-72
2023/07/24 04:16:26;;;;;;;9.10;7.53;;;;;19.40;96550.00;;;;5029740;28;20201;-71
2023/07/24 04:19:16;;;;;;;13.60;8.77;;;;;19.30;96547.00;;;;5037182;28;20225;-72
2023/07/24 04:22:05;;;;;;;11.80;8.63;;;;;19.30;96549.00;;;;5030614;28;20212;-72
2023/07/24 04:24:54;;;;;;;11.83;8.13;;;;;19.30;96550.00;;;;5031555;28;20205;-72
2023/07/24 04:27:43;;;;;;;14.30;7.77;;;;;19.10;96540.00;;;;5029355;28;20212;-72
2023/07/24 04:30:32;;;;;;;9.83;7.00;;;;;19.30;96539.00;;;;5035648;28;20228;-72
2023/07/24 04:33:26;;;;;;;7.50;6.67;;;;;19.40;96543.00;;;;5028967;28;20201;-72
2023/07/24 04:36:15;;;;;;;11.53;7.87;;;;;19.30;96545.00;;;;5029855;28;20197;-72
2023/07/24 04:39:06;;;;;;;10.23;7.70;;;;;19.50;96545.00;;;;5038713;28;20336;-72
2023/07/24 04:41:55;;;;;;;13.03;8.00;;;;;19.60;96541.00;;;;5062003;23;20240;-69
2023/07/24 04:44:44;;;;;;;17.07;8.83;;;;;19.60;96548.00;;;;5047169;28;20218;-69
2023/07/24 04:47:33;;;;;;;10.73;8.30;;;;;19.80;96535.00;;;;5041311;28;20204;-69
2023/07/24 04:50:23;;;;;;;12.47;6.87;;;;;19.10;96547.00;;;;5041286;28;20221;-69
2023/07/24 04:53:12;;;;;;;11.83;7.83;;;;;19.40;96553.00;;;;5026561;28;20202;-70
2023/07/24 04:56:01;;;;;;;12.00;7.23;;;;;19.80;96544.00;;;;5021257;28;20205;-70
2023/07/24 04:58:50;;;;;;;12.20;8.00;;;;;20.00;96540.00;;;;5025502;28;20229;-69
2023/07/24 05:01:39;;;;;;;10.50;7.20;;;;;20.00;96542.00;;;;5025790;28;20229;-69
2023/07/24 05:04:28;;;;;;;9.60;7.13;;;;;20.10;96540.00;;;;5027655;28;20760;-69
2023/07/24 05:07:19;;;;;;;7.07;6.20;;;;;19.90;96551.00;;;;5029752;28;20212;-69
2023/07/24 05:10:09;;;;;;;12.65;8.10;;;;;20.00;96544.00;;;;5022304;28;20209;-69
2023/07/24 05:12:58;;;;;;;11.50;6.73;;;;;20.30;96549.00;;;;5014880;28;20327;-70
2023/07/24 05:15:47;;;;;;;13.97;7.67;;;;;20.70;96558.00;;;;5018661;28;20197;-70
2023/07/24 05:18:36;;;;;;;8.77;6.60;;;;;20.80;96564.00;;;;5027083;28;20232;-70
2023/07/24 05:21:26;;;;;;;9.23;6.77;;;;;20.50;96556.00;;;;5025563;28;20302;-70
2023/07/24 05:24:16;;;;;;;7.83;6.50;;;;;20.60;96550.00;;;;5026401;28;20205;-69
2023/07/24 05:27:06;;;;;;;10.47;7.47;;;;;20.70;96543.00;;;;5027503;28;20198;-69
2023/07/24 05:29:55;;;;;;;9.67;6.97;;;;;20.90;96527.00;;;;5026980;28;20204;-68
2023/07/24 05:32:44;;;;;;;10.90;7.70;;;;;20.90;96513.00;;;;5025937;28;20731;-68
2023/07/24 05:35:33;;;;;;;11.43;7.90;;;;;20.90;96514.00;;;;5027662;28;20589;-69
2023/07/24 05:38:23;;;;;;;12.63;7.60;;;;;21.00;96509.00;;;;5026398;28;20205;-69
2023/07/24 05:41:13;;;;;;;9.83;7.67;;;;;21.40;96517.00;;;;5025785;28;20249;-69
2023/07/24 05:44:02;;;;;;;12.00;7.33;;;;;21.40;96519.00;;;;5028706;28;20197;-70
2023/07/24 05:46:51;;;;;;;11.80;7.30;;;;;21.10;96511.00;;;;5025696;28;20201;-69
2023/07/24 05:49:40;;;;;;;12.10;7.33;;;;;21.60;96516.00;;;;5023716;28;20565;-70
2023/07/24 05:52:30;;;;;;;12.70;6.93;;;;;22.00;96521.00;;;;5024490;28;20213;-70
2023/07/24 05:55:19;;;;;;;10.87;6.93;;;;;22.00;96510.00;;;;5026002;28;20589;-69
2023/07/24 05:58:10;;;;;;;8.97;6.77;;;;;22.00;96511.00;;;;5023177;28;20565;-71
2023/07/24 06:00:59;;;;;;;14.87;8.10;;;;;21.80;96498.00;;;;5027080;28;20488;-70
2023/07/24 06:03:48;;;;;;;11.03;7.60;;;;;21.80;96492.00;;;;5023908;28;20205;-68
2023/07/24 06:06:37;;;;;;;10.33;8.50;;;;;22.30;96475.00;;;;5031164;28;20197;-71
2023/07/24 06:09:26;;;;;;;12.87;7.07;;;;;22.50;96478.00;;;;5025831;28;20205;-70
2023/07/24 06:12:15;;;;;;;10.07;7.63;;;;;22.60;96475.00;;;;5027444;28;20231;-70
2023/07/24 06:15:06;;;;;;;8.57;7.03;;;;;22.90;96485.00;;;;5030632;28;20220;-70
2023/07/24 06:17:55;;;;;;;12.47;7.87;;;;;23.00;96483.00;;;;5023745;28;20201;-70
2023/07/24 06:20:44;;;;;;;12.47;9.53;;;;;23.00;96486.00;;;;5030667;28;20233;-71
2023/07/24 06:23:33;;;;;;;10.10;7.53;;;;;23.20;96491.00;;;;5026223;28;20677;-71
2023/07/24 06:26:23;;;;;;;11.03;7.70;;;;;23.60;96484.00;;;;5025347;28;20668;-71
2023/07/24 06:29:12;;;;;;;11.47;7.20;;;;;24.00;96486.00;;;;5028464;28;20193;-72
2023/07/24 06:32:02;;;;;;;9.93;6.70;;;;;23.80;96491.00;;;;5029577;28;21439;-70
2023/07/24 06:34:51;;;;;;;10.90;7.97;;;;;23.90;96478.00;;;;5029766;28;20190;-70
2023/07/24 06:37:41;;;;;;;10.00;6.70;;;;;24.10;96495.00;;;;5030490;28;20209;-71
2023/07/24 06:40:30;;;;;;;9.63;6.80;;;;;23.90;96484.00;;;;5025218;28;20235;-71
2023/07/24 06:43:19;;;;;;;10.87;7.43;;;;;24.30;96477.00;;;;5029074;28;20212;-70
2023/07/24 06:46:08;;;;;;;10.13;7.67;;;;;24.70;96484.00;;;;5024372;28;20197;-71
2023/07/24 06:48:59;;;;;;;10.50;7.93;;;;;24.70;96476.00;;;;5029045;28;20728;-72
2023/07/24 06:51:48;;;;;;;9.67;6.87;;;;;24.80;96474.00;;;;5024618;28;20240;-71
2023/07/24 06:54:37;;;;;;;10.00;7.67;;;;;25.00;96471.00;;;;5018878;28;20206;-71
2023/07/24 06:57:26;;;;;;;11.50;7.57;;;;;25.30;96460.00;;;;5028388;28;20251;-71
2023/07/24 07:00:16;;;;;;;10.13;6.83;;;;;25.40;96454.00;;;;5024311;28;20229;-70
2023/07/24 07:03:05;;;;;;;9.73;6.97;;;;;25.60;96443.00;;;;5026723;28;20209;-71
2023/07/24 07:06:00;;;;;;;12.37;7.60;;;;;25.40;96437.00;;;;5031315;28;20212;-72
2023/07/24 07:08:49;;;;;;;9.83;6.97;;;;;25.80;96445.00;;;;5029647;28;20275;-71
2023/07/24 07:11:38;;;;;;;9.60;7.43;;;;;25.70;96435.00;;;;5030310;28;20750;-71
2023/07/24 07:14:27;;;;;;;12.47;7.87;;;;;26.00;96440.00;;;;5027920;28;20200;-72
2023/07/24 07:17:16;;;;;;;9.93;6.97;;;;;26.20;96444.00;;;;5030673;28;20205;-71
2023/07/24 07:20:07;;;;;;;9.60;6.50;;;;;25.90;96441.00;;;;5030504;28;20217;-71
2023/07/24 07:22:57;;;;;;;9.50;7.67;;;;;26.30;96426.00;;;;5023518;28;20208;-71
2023/07/24 07:25:46;;;;;;;9.87;7.10;;;;;26.70;96435.00;;;;5030157;28;20216;-70
2023/07/24 07:28:37;;;;;;;13.47;7.37;;;;;26.80;96424.00;;;;5028162;28;20209;-73
2023/07/24 07:31:26;;;;;;;7.93;6.80;;;;;26.90;96428.00;;;;5023478;28;20712;-72
2023/07/24 07:34:15;;;;;;;8.07;6.77;;;;;27.10;96413.00;;;;5030387;28;20214;-71
2023/07/24 07:37:04;;;;;;;8.30;6.63;;;;;27.40;96415.00;;;;5027129;28;20216;-70
2023/07/24 07:39:55;;;;;;;9.77;6.70;;;;;27.40;96416.00;;;;5023677;28;20234;-71
2023/07/24 07:42:44;;;;;;;10.67;7.13;;;;;27.60;96421.00;;;;5028412;28;20543;-72
2023/07/24 07:45:34;;;;;;;9.20;6.47;;;;;27.50;96423.00;;;;5029471;28;20277;-71
2023/07/24 07:48:23;;;;;;;9.57;6.63;;;;;27.80;96421.00;;;;5029402;28;20203;-70
2023/07/24 07:51:12;;;;;;;8.27;6.17;;;;;28.10;96411.00;;;;5027882;28;20219;-72
2023/07/24 07:54:01;;;;;;;8.20;6.77;;;;;27.90;96396.00;;;;5029664;28;20202;-71
2023/07/24 07:56:52;;;;;;;7.83;6.60;;;;;28.00;96403.00;;;;5021882;28;20696;-72
2023/07/24 07:59:41;;;;;;;8.23;6.23;;;;;28.30;96384.00;;;;5027166;28;20200;-71
2023/07/24 08:02:31;;;;;;;9.20;6.67;;;;;28.50;96381.00;;;;5025644;28;20212;-71
2023/07/24 08:05:21;;;;;;;8.70;5.97;;;;;28.60;96384.00;;;;5029272;28;20200;-71
2023/07/24 08:08:10;;;;;;;8.10;6.33;;;;;28.50;96390.00;;;;5025485;28;20211;-71
2023/07/24 08:10:59;;;;;;;10.87;6.17;;;;;28.60;96390.00;;;;5029224;28;20216;-71
2023/07/24 08:13:49;;;;;;;8.27;6.73;;;;;28.80;96387.00;;;;5029779;28;20567;-72
2023/07/24 08:16:38;;;;;;;9.33;6.40;;;;;29.00;96382.00;;;;5028387;28;20720;-71
2023/07/24 08:19:30;;;;;;;9.43;6.80;;;;;29.00;96374.00;;;;5022197;28;20202;-70
2023/07/24 08:22:19;;;;;;;8.13;6.67;;;;;29.00;96362.00;;;;5021681;28;20214;-72
2023/07/24 08:25:09;;;;;;;10.83;7.23;;;;;29.20;96369.00;;;;5028964;28;20208;-71
2023/07/24 08:27:58;;;;;;;8.47;6.93;;;;;29.10;96357.00;;;;5022017;28;20278;-70
2023/07/24 08:31:01;;;;;;;11.20;7.07;;;;;29.40;96364.00;;;;5023460;28;20611;-69
2023/07/24 08:33:51;;;;;;;11.27;7.07;;;;;29.10;96375.00;;;;5025853;28;20248;-72
2023/07/24 08:36:40;;;;;;;9.73;7.27;;;;;29.60;96368.00;;;;5023376;28;20198;-71
2023/07/24 08:39:29;;;;;;;8.10;6.50;;;;;30.00;96365.00;;;;5027624;28;20273;-72
2023/07/24 08:42:20;;;;;;;9.43;6.40;;;;;30.00;96370.00;;;;5020958;28;20222;-71
2023/07/24 08:45:13;;;;;;;10.97;7.10;;;;;30.00;96367.00;;;;5028335;28;20201;-72
2023/07/24 08:48:04;;;;;;;9.80;6.30;;;;;30.30;96369.00;;;;5026059;28;20209;-71
2023/07/24 08:50:53;;;;;;;11.03;6.77;;;;;30.40;96374.00;;;;5021434;28;20227;-72
2023/07/24 08:53:44;;;;;;;10.93;6.97;;;27.30;99.90;30.60;96369.00;;;;5024765;28;20211;-70
2023/07/24 08:56:33;;;;;;;10.60;7.43;;;27.30;99.90;30.70;96363.00;;;;5027045;28;20202;-70
2023/07/24 08:59:21;;;;;;;11.13;6.93;;;27.50;99.90;30.60;96367.00;;;;5018170;28;20200;-72
2023/07/24 09:02:10;;;;;;;9.50;7.87;;;27.50;99.90;31.00;96355.00;;;;5022664;28;20903;-72
2023/07/24 09:05:00;;;;;;;12.03;7.50;;;27.70;99.90;31.30;96349.00;;;;5023466;28;20208;-72
2023/07/24 09:07:50;;;;;;;10.57;6.97;;;27.90;99.90;31.30;96341.00;;;;5021853;28;20191;-73
2023/07/24 09:10:39;;;;;;;8.17;6.60;;;28.00;99.90;31.50;96331.00;;;;5027175;28;20231;-71
2023/07/24 09:13:28;;;;;;;10.27;7.50;;;28.20;99.90;31.30;96333.00;;;;5027575;28;20200;-72
2023/07/24 09:16:24;;;;;;;11.07;7.50;;;28.30;99.90;31.80;96321.00;;;;5022581;28;20213;-71
2023/07/24 09:19:18;;;;;;;10.87;7.90;;;28.50;99.90;32.10;96315.00;;;;5025412;28;20208;-72
2023/07/24 09:22:19;;;;;;;12.37;8.73;;;28.70;99.90;32.70;96292.00;;;;5024316;28;20251;-72
2023/07/24 09:25:08;;;;;;;11.45;6.75;;;29.00;99.90;32.70;96280.00;;;;5026789;28;20196;-71
2023/07/24 09:27:59;;;;;;;9.15;7.35;;;29.20;99.90;32.60;96280.00;;;;5024336;28;20676;-72
2023/07/24 09:30:54;;;;;;;9.68;6.88;;;29.30;99.90;32.70;96299.00;;;;5021955;28;20223;-71
2023/07/24 09:33:44;;;;;;;11.57;8.43;;;29.40;99.90;31.50;96287.00;;;;5027952;28;20216;-72
2023/07/24 09:36:39;;;;;;;10.90;7.63;;;29.30;99.90;32.00;96275.00;;;;5024557;28;20216;-71
2023/07/24 09:39:29;;;;;;;13.00;8.23;;;29.10;99.90;32.80;96273.00;;;;5030970;28;20211;-71
2023/07/24 09:42:18;;;;;;;12.25;8.32;;;29.30;99.90;32.80;96272.00;;;;5031048;28;20235;-71
2023/07/24 09:45:09;;;;;;;10.18;7.95;;;29.50;99.90;32.70;96261.00;;;;5026828;28;20209;-71
2023/07/24 09:48:00;;;;;;;9.85;7.88;;;29.60;99.90;32.50;96262.00;;;;5031150;28;20218;-72
2023/07/24 09:50:56;;;;;;;10.35;7.95;;;29.80;99.90;31.80;96278.00;;;;5028855;28;20240;-72
2023/07/24 09:53:55;;;;;;;9.45;7.38;;;29.50;99.90;31.30;96268.00;;;;5028998;28;20209;-71
2023/07/24 09:56:46;;;;;;;11.30;8.23;;;29.10;99.90;31.00;96254.00;;;;5031754;28;20204;-72
2023/07/24 09:59:38;;;;;;;10.05;7.40;;;28.90;99.90;30.80;96247.00;;;;5029683;28;20216;-71
2023/07/24 10:02:27;;;;;;;14.38;8.07;;;28.70;99.90;31.00;96260.00;;;;5026886;28;20224;-70
2023/07/24 10:05:17;;;;;;;13.32;8.18;;;28.60;99.90;30.80;96253.00;;;;5033498;28;20193;-72
2023/07/24 10:08:06;;;;;;;11.73;8.38;;;28.50;99.90;31.00;96237.00;;;;5027774;28;20687;-71
2023/07/24 10:10:56;;;;;;;10.60;8.07;;;28.40;99.90;31.60;96220.00;;;;5025538;28;20220;-72
2023/07/24 10:13:47;;;;;;;10.80;8.37;;;28.60;99.90;32.00;96218.00;;;;5030884;28;20201;-71
2023/07/24 10:16:35;;;;;;;14.45;8.18;;;28.80;99.90;33.30;96215.00;;;;5027885;28;20207;-72
2023/07/24 10:19:24;;;;;;;11.70;8.75;;;29.20;99.90;33.30;96214.00;;;;5026983;28;20194;-72
2023/07/24 10:22:19;;;;;;;11.35;8.38;;;29.50;99.90;32.50;96199.00;;;;5020914;28;20240;-71
2023/07/24 10:25:09;;;;;;;11.02;8.20;;;29.70;99.90;33.00;96185.00;;;;5024558;28;20578;-72
2023/07/24 10:28:07;;;;;;;12.30;8.35;;;29.80;99.90;34.40;96192.00;;;;5030853;28;20202;-72
2023/07/24 10:30:57;;;;;;;11.48;9.20;;;30.20;99.90;33.40;96204.00;;;;5024174;28;20237;-71
2023/07/24 10:33:47;;;;;;;10.88;8.40;;;30.40;99.90;33.00;96194.00;;;;5031184;28;20204;-72
2023/07/24 10:36:38;;;;;;;11.25;9.05;;;30.30;99.90;32.40;96193.00;;;;5030222;28;20207;-72
2023/07/24 10:39:27;;;;;;;14.05;9.68;;;30.20;99.90;31.50;96184.00;;;;5027823;28;20579;-70
2023/07/24 10:42:24;;;;;;;11.35;8.80;;;29.70;99.90;30.60;96172.00;;;;5076190;23;20490;-68
2023/07/24 10:45:13;;;;;;;11.85;8.15;;;29.30;99.20;30.30;96183.00;;;;5062750;28;20203;-69
2023/07/24 10:48:04;;;;;;;12.40;8.93;;;29.00;99.80;29.80;96193.00;;;;5061738;28;20202;-68
2023/07/24 10:50:53;;;;;;;12.97;9.60;;;28.70;99.90;30.00;96192.00;;;;5056932;28;20234;-68
2023/07/24 10:53:47;;;;;;;12.53;8.77;;;28.50;99.90;30.00;96183.00;;;;5040256;28;20697;-68
2023/07/24 10:56:38;;;;;;;15.57;8.63;;;;;29.80;96191.00;;;;5039542;28;20203;-69
2023/07/24 10:59:38;;;;;;;13.20;9.33;;;28.20;99.90;30.00;96187.00;;;;5039909;28;20669;-71
2023/07/24 11:02:28;;;;;;;11.03;8.57;;;28.20;99.90;30.50;96178.00;;;;5041823;28;20702;-73
2023/07/24 11:05:19;;;;;;;12.60;9.03;;;28.20;99.90;30.30;96165.00;;;;5048223;28;20601;-71
2023/07/24 11:08:15;;;;;;;14.40;9.63;;;28.20;99.90;30.50;96159.00;;;;5043631;28;20607;-75
2023/07/24 11:11:04;;;;;;;15.97;8.93;;;28.20;99.90;30.30;96137.00;;;;5038820;28;20817;-69
2023/07/24 11:13:53;;;;;;;13.90;9.57;;;;;30.70;96141.00;;;;5048961;28;20198;-73
2023/07/24 11:16:50;;;;;;;12.73;9.53;;;28.30;99.90;30.50;96153.00;;;;5045311;28;20209;-73
2023/07/24 11:19:38;;;;;;;15.67;10.77;;;28.30;99.90;30.90;96165.00;;;;5041590;28;20213;-75
2023/07/24 11:22:29;;;;;;;14.87;10.10;;;28.40;99.90;31.20;96157.00;;;;5044828;28;20230;-73
2023/07/24 11:25:18;;;;;;;13.23;9.37;;;;;31.10;96162.00;;;;5042611;28;20206;-73
2023/07/24 11:28:08;;;;;;;12.17;8.60;;;28.40;99.90;30.40;96146.00;;;;5041650;28;20214;-67
2023/07/24 11:31:03;;;;;;;11.50;8.90;;;28.60;99.90;31.10;96147.00;;;;5041281;28;20213;-73
2023/07/24 11:33:54;;;;;;;13.47;9.20;;;;;31.20;96174.00;;;;5046790;28;20205;-72
2023/07/24 11:36:43;;;;;;;12.27;9.43;;;28.80;99.40;31.10;96157.00;;;;5048058;28;20201;-68
2023/07/24 11:39:33;;;;;;;15.13;10.07;;;28.90;99.90;31.20;96157.00;;;;5038674;28;20210;-73
2023/07/24 11:42:22;;;;;;;13.73;9.03;;;29.00;99.90;30.40;96164.00;;;;5037042;28;20231;-68
2023/07/24 11:45:11;;;;;;;15.50;9.60;;;29.00;98.90;30.50;96156.00;;;;5045395;28;20218;-72
2023/07/24 11:48:00;;;;;;;13.27;7.93;;;;;30.00;96152.00;;;;5043389;28;20681;-66
2023/07/24 11:50:50;;;;;;;12.07;10.33;;;28.70;99.90;31.40;96145.00;;;;5044126;28;20759;-72
2023/07/24 11:53:40;;;;;;;17.27;9.73;;;;;31.40;96154.00;;;;5041295;28;20194;-71
2023/07/24 11:56:31;;;;;;;13.77;10.70;;;29.10;98.30;30.90;96152.00;;;;5041476;28;20202;-69
2023/07/24 11:59:20;;;;;;;12.03;9.17;;;;;31.60;96156.00;;;;5039479;28;20227;-75
2023/07/24 12:02:11;;;;;;;11.35;9.02;;;29.10;98.20;32.50;96149.00;;;;5042075;28;20224;-73
2023/07/24 12:05:01;;;;;;;18.57;11.10;;;29.30;99.40;33.10;96136.00;;;;5044151;28;20208;-74
2023/07/24 12:07:50;;;;;;;14.43;9.40;;;29.50;99.90;33.40;96126.00;;;;5042341;28;20212;-74
2023/07/24 12:10:40;;;;;;;12.63;9.27;;;29.80;99.90;33.80;96123.00;;;;5043416;28;20202;-73
2023/07/24 12:13:32;;;;;;;14.43;9.38;;;30.10;99.90;33.10;96106.00;;;;5040157;28;20206;-74
2023/07/24 12:16:20;;;;;;;11.82;9.77;;;30.20;98.70;32.80;96094.00;;;;5042470;28;20219;-73
2023/07/24 12:19:10;;;;;;;15.85;10.65;;;30.20;98.50;32.50;96091.00;;;;5042491;28;20207;-73
2023/07/24 12:21:58;;;;;;;12.32;9.38;;;30.10;97.50;32.90;96100.00;;;;5033241;28;20234;-74
2023/07/24 12:24:47;;;;;;;14.38;9.23;;;30.00;97.20;32.80;96092.00;;;;5040098;28;20210;-73
2023/07/24 12:27:37;;;;;;;14.82;10.05;;;30.00;97.60;32.80;96083.00;;;;5035227;28;20202;-74
2023/07/24 12:30:28;;;;;;;15.48;10.40;;;29.90;97.10;32.90;96086.00;;;;5040419;28;20267;-73
2023/07/24 12:33:17;;;;;;;14.48;9.63;;;29.90;96.00;32.60;96082.00;;;;5040495;28;20678;-73
2023/07/24 12:36:06;;;;;;;15.70;10.10;;;29.80;98.60;32.40;96074.00;;;;5036747;28;20227;-74
2023/07/24 12:38:55;;;;;;;12.02;8.43;;;29.80;96.20;32.80;96058.00;;;;5037366;28;20198;-74
2023/07/24 12:41:44;;;;;;;12.98;10.10;;;29.80;97.00;33.00;96070.00;;;;5038415;28;20243;-74
2023/07/24 12:44:33;;;;;;;14.13;9.68;;;29.90;95.90;33.10;96063.00;;;;5041503;28;20796;-74
2023/07/24 12:47:23;;;;;;;13.70;9.32;;;30.10;96.00;32.00;96057.00;;;;5040646;28;20569;-73
2023/07/24 12:50:12;;;;;;;14.05;9.80;;;29.90;94.60;31.80;96059.00;;;;5039376;28;20197;-73
2023/07/24 12:53:01;;;;;;;16.35;9.38;;;29.70;95.20;32.10;96048.00;;;;5041034;28;20218;-74
2023/07/24 12:55:51;;;;;;;13.30;9.43;;;29.50;94.50;32.20;96042.00;;;;5039149;28;20211;-74
2023/07/24 12:58:40;;;;;;;15.18;9.75;;;29.60;95.20;31.40;96030.00;;;;5042190;28;20215;-73
2023/07/24 13:01:29;;;;;;;17.02;11.00;;;29.60;94.80;31.90;96038.00;;;;5037756;28;20229;-73
2023/07/24 13:04:20;;;;;;;16.50;10.75;;;29.40;95.90;32.50;96027.00;;;;5040431;28;20263;-74
2023/07/24 13:07:09;;;;;;;14.85;10.13;;;29.50;95.10;33.50;96014.00;;;;5042395;28;20203;-74
2023/07/24 13:09:59;;;;;;;20.92;12.70;;;29.80;95.40;33.20;96039.00;;;;5038386;28;20223;-74
2023/07/24 13:12:48;;;;;;;13.27;9.25;;;30.00;95.10;32.20;96023.00;;;;5041676;28;20581;-72
2023/07/24 13:15:37;;;;;;;14.25;8.60;;;30.00;93.40;31.90;96017.00;;;;5038812;28;20229;-73
2023/07/24 13:18:26;;;;;;;14.80;10.23;;;29.90;93.20;32.30;96021.00;;;;5038764;28;20201;-74
2023/07/24 13:21:17;;;;;;;13.27;9.90;;;29.80;94.50;32.70;96015.00;;;;5041241;28;20779;-74
2023/07/24 13:24:07;;;;;;;16.30;10.13;;;29.80;94.20;33.20;96020.00;;;;5047875;28;20239;-74
2023/07/24 13:26:56;;;;;;;15.60;11.13;;;29.90;94.50;32.30;96035.00;;;;5042334;28;20200;-74
2023/07/24 13:29:45;;;;;;;16.08;10.38;;;30.00;93.10;33.00;96035.00;;;;5041124;28;20214;-74